sensor_id;sensor_type;location;lat;lon;timestamp;P1;durP1;ratioP1;P2;durP2;ratioP2
63089;SDS011;49174;43.198;27.824;2023-03-01T02:43:29;10.50;;;6.18;;
63089;SDS011;49174;43.198;27.824;2023-03-01T02:46:02;10.35;;;6.03;;
63089;SDS011;49174;43.198;27.824;2023-03-01T02:48:39;10.30;;;7.13;;
63089;SDS011;49174;43.198;27.824;2023-03-01T02:56:35;10.63;;;7.35;;
63089;SDS011;49174;43.198;27.824;2023-03-01T02:59:01;9.55;;;7.30;;
63089;SDS011;49174;43.198;27.824;2023-03-01T03:01:28;10.90;;;7.28;;
63089;SDS011;49174;43.198;27.824;2023-03-01T03:04:03;13.63;;;7.68;;
63089;SDS011;49174;43.198;27.824;2023-03-01T03:06:29;13.00;;;7.10;;
63089;SDS011;49174;43.198;27.824;2023-03-01T03:08:55;11.20;;;7.05;;
63089;SDS011;49174;43.198;27.824;2023-03-01T03:11:21;12.55;;;7.35;;
63089;SDS011;49174;43.198;27.824;2023-03-01T03:13:46;12.60;;;7.22;;
63089;SDS011;49174;43.198;27.824;2023-03-01T03:16:13;12.27;;;6.57;;
63089;SDS011;49174;43.198;27.824;2023-03-01T03:18:39;11.40;;;7.80;;
63089;SDS011;49174;43.198;27.824;2023-03-01T03:21:08;13.30;;;7.03;;
63089;SDS011;49174;43.198;27.824;2023-03-01T03:23:35;13.77;;;7.88;;
63089;SDS011;49174;43.198;27.824;2023-03-01T03:26:01;13.90;;;7.60;;
63089;SDS011;49174;43.198;27.824;2023-03-01T03:28:32;11.70;;;7.10;;
63089;SDS011;49174;43.198;27.824;2023-03-01T03:30:59;13.50;;;8.00;;
63089;SDS011;49174;43.198;27.824;2023-03-01T03:33:31;15.23;;;9.13;;
63089;SDS011;49174;43.198;27.824;2023-03-01T03:35:57;15.25;;;10.02;;
63089;SDS011;49174;43.198;27.824;2023-03-01T03:38:22;14.35;;;9.05;;
63089;SDS011;49174;43.198;27.824;2023-03-01T03:40:49;13.07;;;8.48;;
63089;SDS011;49174;43.198;27.824;2023-03-01T03:43:17;11.60;;;7.30;;
63089;SDS011;49174;43.198;27.824;2023-03-01T03:45:48;15.02;;;10.07;;
63089;SDS011;49174;43.198;27.824;2023-03-01T03:48:15;13.95;;;9.90;;
63089;SDS011;49174;43.198;27.824;2023-03-01T03:50:46;15.55;;;9.80;;
63089;SDS011;49174;43.198;27.824;2023-03-01T03:53:14;14.75;;;9.63;;
63089;SDS011;49174;43.198;27.824;2023-03-01T03:55:39;15.55;;;9.77;;
63089;SDS011;49174;43.198;27.824;2023-03-01T03:58:08;14.07;;;9.20;;
63089;SDS011;49174;43.198;27.824;2023-03-01T04:00:36;14.57;;;8.05;;
63089;SDS011;49174;43.198;27.824;2023-03-01T04:03:01;12.40;;;8.27;;
63089;SDS011;49174;43.198;27.824;2023-03-01T04:05:28;13.93;;;8.27;;
63089;SDS011;49174;43.198;27.824;2023-03-01T04:07:53;15.10;;;9.90;;
63089;SDS011;49174;43.198;27.824;2023-03-01T04:10:39;16.27;;;9.82;;
63089;SDS011;49174;43.198;27.824;2023-03-01T04:13:08;17.00;;;9.73;;
63089;SDS011;49174;43.198;27.824;2023-03-01T04:15:36;13.98;;;8.90;;
63089;SDS011;49174;43.198;27.824;2023-03-01T04:18:01;16.80;;;10.00;;
63089;SDS011;49174;43.198;27.824;2023-03-01T04:20:30;13.80;;;9.15;;
63089;SDS011;49174;43.198;27.824;2023-03-01T04:23:00;18.45;;;11.45;;
63089;SDS011;49174;43.198;27.824;2023-03-01T04:28:29;18.25;;;9.50;;
63089;SDS011;49174;43.198;27.824;2023-03-01T04:31:02;15.73;;;9.68;;
63089;SDS011;49174;43.198;27.824;2023-03-01T04:33:38;16.35;;;9.75;;
63089;SDS011;49174;43.198;27.824;2023-03-01T04:36:07;15.32;;;9.40;;
63089;SDS011;49174;43.198;27.824;2023-03-01T04:38:34;18.58;;;10.80;;
63089;SDS011;49174;43.198;27.824;2023-03-01T04:41:02;27.88;;;15.85;;
63089;SDS011;49174;43.198;27.824;2023-03-01T04:43:36;20.33;;;11.50;;
63089;SDS011;49174;43.198;27.824;2023-03-01T04:46:04;18.85;;;11.63;;
63089;SDS011;49174;43.198;27.824;2023-03-01T04:48:36;18.60;;;10.80;;
63089;SDS011;49174;43.198;27.824;2023-03-01T04:51:03;13.73;;;9.85;;
63089;SDS011;49174;43.198;27.824;2023-03-01T04:53:29;16.00;;;10.40;;
63089;SDS011;49174;43.198;27.824;2023-03-01T04:55:55;20.05;;;11.68;;
63089;SDS011;49174;43.198;27.824;2023-03-01T04:58:25;19.95;;;11.90;;
63089;SDS011;49174;43.198;27.824;2023-03-01T05:00:53;16.48;;;10.50;;
63089;SDS011;49174;43.198;27.824;2023-03-01T05:03:20;15.98;;;10.52;;
63089;SDS011;49174;43.198;27.824;2023-03-01T05:58:14;16.20;;;11.48;;
63089;SDS011;49174;43.198;27.824;2023-03-01T06:08:47;27.95;;;14.98;;
63089;SDS011;49174;43.198;27.824;2023-03-01T07:13:05;26.95;;;16.92;;
63089;SDS011;49174;43.198;27.824;2023-03-01T07:15:32;21.92;;;13.40;;
63089;SDS011;49174;43.198;27.824;2023-03-01T08:22:24;16.77;;;11.50;;
63089;SDS011;49174;43.198;27.824;2023-03-01T08:53:00;15.25;;;9.15;;
63089;SDS011;49174;43.198;27.824;2023-03-01T09:34:53;18.85;;;11.48;;
63089;SDS011;49174;43.198;27.824;2023-03-01T09:45:38;17.23;;;10.50;;
63089;SDS011;49174;43.198;27.824;2023-03-01T10:31:38;15.40;;;9.43;;
63089;SDS011;49174;43.198;27.824;2023-03-01T10:34:28;20.20;;;12.00;;
63089;SDS011;49174;43.198;27.824;2023-03-01T10:36:57;17.98;;;11.00;;
63089;SDS011;49174;43.198;27.824;2023-03-01T10:39:33;17.35;;;8.65;;
63089;SDS011;49174;43.198;27.824;2023-03-01T10:47:01;10.10;;;7.00;;
63089;SDS011;49174;43.198;27.824;2023-03-01T10:49:27;12.68;;;7.50;;
63089;SDS011;49174;43.198;27.824;2023-03-01T10:51:53;11.98;;;6.53;;
63089;SDS011;49174;43.198;27.824;2023-03-01T13:10:54;10.57;;;5.68;;
63089;SDS011;49174;43.198;27.824;2023-03-01T14:24:51;11.13;;;5.97;;
63089;SDS011;49174;43.198;27.824;2023-03-01T15:43:40;26.67;;;14.63;;
63089;SDS011;49174;43.198;27.824;2023-03-01T15:52:04;12.85;;;7.07;;
63089;SDS011;49174;43.198;27.824;2023-03-01T16:11:55;9.55;;;6.32;;
63089;SDS011;49174;43.198;27.824;2023-03-01T16:14:21;10.23;;;6.38;;
63089;SDS011;49174;43.198;27.824;2023-03-01T16:16:47;8.93;;;6.82;;
63089;SDS011;49174;43.198;27.824;2023-03-01T16:19:13;47.67;;;26.52;;
63089;SDS011;49174;43.198;27.824;2023-03-01T16:21:39;21.95;;;11.40;;
63089;SDS011;49174;43.198;27.824;2023-03-01T16:24:06;12.40;;;7.95;;
63089;SDS011;49174;43.198;27.824;2023-03-01T16:26:31;14.20;;;7.70;;
63089;SDS011;49174;43.198;27.824;2023-03-01T16:28:57;15.80;;;7.00;;
63089;SDS011;49174;43.198;27.824;2023-03-01T16:31:24;10.45;;;6.60;;
63089;SDS011;49174;43.198;27.824;2023-03-01T16:33:57;8.75;;;6.80;;
63089;SDS011;49174;43.198;27.824;2023-03-01T16:42:41;12.73;;;7.93;;
63089;SDS011;49174;43.198;27.824;2023-03-01T16:45:45;15.32;;;10.15;;
63089;SDS011;49174;43.198;27.824;2023-03-01T16:48:11;15.65;;;9.80;;
63089;SDS011;49174;43.198;27.824;2023-03-01T16:50:38;11.00;;;7.30;;
63089;SDS011;49174;43.198;27.824;2023-03-01T16:53:08;12.02;;;6.93;;
63089;SDS011;49174;43.198;27.824;2023-03-01T16:55:34;13.43;;;8.02;;
63089;SDS011;49174;43.198;27.824;2023-03-01T16:58:00;12.60;;;7.50;;
63089;SDS011;49174;43.198;27.824;2023-03-01T17:00:26;11.38;;;8.27;;
63089;SDS011;49174;43.198;27.824;2023-03-01T17:02:52;12.90;;;8.25;;
63089;SDS011;49174;43.198;27.824;2023-03-01T17:05:20;18.33;;;12.45;;
63089;SDS011;49174;43.198;27.824;2023-03-01T17:07:48;16.13;;;10.15;;
63089;SDS011;49174;43.198;27.824;2023-03-01T17:10:17;13.60;;;9.05;;
63089;SDS011;49174;43.198;27.824;2023-03-01T17:12:48;16.35;;;9.45;;
63089;SDS011;49174;43.198;27.824;2023-03-01T17:15:15;15.82;;;10.70;;
63089;SDS011;49174;43.198;27.824;2023-03-01T17:17:40;13.27;;;8.82;;
63089;SDS011;49174;43.198;27.824;2023-03-01T17:20:06;11.60;;;8.50;;
63089;SDS011;49174;43.198;27.824;2023-03-01T17:22:32;11.98;;;8.55;;
63089;SDS011;49174;43.198;27.824;2023-03-01T17:24:58;14.25;;;9.00;;
63089;SDS011;49174;43.198;27.824;2023-03-01T17:27:23;18.15;;;9.32;;
63089;SDS011;49174;43.198;27.824;2023-03-01T17:29:49;38.75;;;18.55;;
63089;SDS011;49174;43.198;27.824;2023-03-01T17:32:15;39.35;;;21.50;;
63089;SDS011;49174;43.198;27.824;2023-03-01T17:34:44;32.58;;;20.35;;
63089;SDS011;49174;43.198;27.824;2023-03-01T17:37:10;22.05;;;13.43;;
63089;SDS011;49174;43.198;27.824;2023-03-01T17:39:36;18.05;;;10.20;;
63089;SDS011;49174;43.198;27.824;2023-03-01T17:42:03;13.10;;;8.80;;
63089;SDS011;49174;43.198;27.824;2023-03-01T17:44:35;14.27;;;8.73;;
63089;SDS011;49174;43.198;27.824;2023-03-01T17:47:01;11.07;;;8.27;;
63089;SDS011;49174;43.198;27.824;2023-03-01T17:49:28;16.10;;;9.43;;
63089;SDS011;49174;43.198;27.824;2023-03-01T17:51:53;14.65;;;8.80;;
63089;SDS011;49174;43.198;27.824;2023-03-01T17:54:19;13.85;;;8.32;;
63089;SDS011;49174;43.198;27.824;2023-03-01T17:56:45;14.55;;;8.02;;
63089;SDS011;49174;43.198;27.824;2023-03-01T17:59:10;13.27;;;8.63;;
63089;SDS011;49174;43.198;27.824;2023-03-01T18:01:36;17.40;;;9.68;;
63089;SDS011;49174;43.198;27.824;2023-03-01T18:04:01;13.15;;;9.43;;
63089;SDS011;49174;43.198;27.824;2023-03-01T18:06:27;26.23;;;14.02;;
63089;SDS011;49174;43.198;27.824;2023-03-01T18:08:53;32.15;;;18.95;;
63089;SDS011;49174;43.198;27.824;2023-03-01T18:11:24;55.13;;;24.65;;
63089;SDS011;49174;43.198;27.824;2023-03-01T18:13:52;74.90;;;30.70;;
63089;SDS011;49174;43.198;27.824;2023-03-01T18:16:19;48.92;;;23.52;;
63089;SDS011;49174;43.198;27.824;2023-03-01T18:18:46;43.38;;;21.13;;
63089;SDS011;49174;43.198;27.824;2023-03-01T18:21:12;32.80;;;15.68;;
63089;SDS011;49174;43.198;27.824;2023-03-01T18:23:40;28.25;;;16.85;;
63089;SDS011;49174;43.198;27.824;2023-03-01T18:26:08;42.85;;;21.67;;
63089;SDS011;49174;43.198;27.824;2023-03-01T18:28:36;36.33;;;22.15;;
63089;SDS011;49174;43.198;27.824;2023-03-01T18:31:04;29.98;;;18.80;;
63089;SDS011;49174;43.198;27.824;2023-03-01T18:33:32;21.83;;;13.48;;
63089;SDS011;49174;43.198;27.824;2023-03-01T18:35:59;12.52;;;7.68;;
63089;SDS011;49174;43.198;27.824;2023-03-01T18:38:24;13.23;;;7.20;;
63089;SDS011;49174;43.198;27.824;2023-03-01T18:40:51;12.52;;;7.95;;
63089;SDS011;49174;43.198;27.824;2023-03-01T18:43:17;13.60;;;8.25;;
63089;SDS011;49174;43.198;27.824;2023-03-01T18:45:43;14.02;;;7.63;;
63089;SDS011;49174;43.198;27.824;2023-03-01T18:48:12;15.65;;;8.50;;
63089;SDS011;49174;43.198;27.824;2023-03-01T18:50:39;11.75;;;7.90;;
63089;SDS011;49174;43.198;27.824;2023-03-01T18:53:06;11.90;;;8.90;;
63089;SDS011;49174;43.198;27.824;2023-03-01T18:55:35;16.23;;;9.27;;
63089;SDS011;49174;43.198;27.824;2023-03-01T18:58:02;15.18;;;9.63;;
63089;SDS011;49174;43.198;27.824;2023-03-01T19:00:29;15.18;;;11.13;;
63089;SDS011;49174;43.198;27.824;2023-03-01T19:02:55;25.35;;;17.73;;
63089;SDS011;49174;43.198;27.824;2023-03-01T19:05:21;16.92;;;10.73;;
63089;SDS011;49174;43.198;27.824;2023-03-01T19:07:47;15.77;;;10.90;;
63089;SDS011;49174;43.198;27.824;2023-03-01T19:10:13;83.78;;;40.95;;
63089;SDS011;49174;43.198;27.824;2023-03-01T19:12:38;43.55;;;24.88;;
63089;SDS011;49174;43.198;27.824;2023-03-01T19:15:04;17.05;;;11.13;;
63089;SDS011;49174;43.198;27.824;2023-03-01T19:17:30;12.57;;;8.90;;
63089;SDS011;49174;43.198;27.824;2023-03-01T19:19:56;12.55;;;9.18;;
63089;SDS011;49174;43.198;27.824;2023-03-01T19:22:22;17.23;;;10.80;;
63089;SDS011;49174;43.198;27.824;2023-03-01T19:24:48;15.35;;;10.20;;
63089;SDS011;49174;43.198;27.824;2023-03-01T19:27:14;12.70;;;8.93;;
63089;SDS011;49174;43.198;27.824;2023-03-01T19:29:40;14.25;;;8.95;;
63089;SDS011;49174;43.198;27.824;2023-03-01T19:32:05;42.97;;;19.08;;
63089;SDS011;49174;43.198;27.824;2023-03-01T19:34:31;13.13;;;9.70;;
63089;SDS011;49174;43.198;27.824;2023-03-01T19:36:57;14.88;;;10.07;;
63089;SDS011;49174;43.198;27.824;2023-03-01T19:39:22;13.82;;;9.70;;
63089;SDS011;49174;43.198;27.824;2023-03-01T19:41:48;14.68;;;11.10;;
63089;SDS011;49174;43.198;27.824;2023-03-01T19:44:14;14.75;;;10.52;;
63089;SDS011;49174;43.198;27.824;2023-03-01T19:46:39;16.00;;;10.43;;
63089;SDS011;49174;43.198;27.824;2023-03-01T19:49:06;15.10;;;10.38;;
63089;SDS011;49174;43.198;27.824;2023-03-01T19:51:32;19.05;;;13.13;;
63089;SDS011;49174;43.198;27.824;2023-03-01T19:54:00;18.88;;;13.20;;
63089;SDS011;49174;43.198;27.824;2023-03-01T19:56:27;20.48;;;12.98;;
63089;SDS011;49174;43.198;27.824;2023-03-01T19:58:52;22.48;;;14.10;;
63089;SDS011;49174;43.198;27.824;2023-03-01T20:01:24;28.48;;;18.88;;
63089;SDS011;49174;43.198;27.824;2023-03-01T20:03:52;25.85;;;19.05;;
63089;SDS011;49174;43.198;27.824;2023-03-01T20:06:18;24.50;;;15.98;;
63089;SDS011;49174;43.198;27.824;2023-03-01T20:08:47;24.27;;;15.55;;
63089;SDS011;49174;43.198;27.824;2023-03-01T20:11:14;23.50;;;14.30;;
63089;SDS011;49174;43.198;27.824;2023-03-01T20:13:41;23.55;;;12.55;;
63089;SDS011;49174;43.198;27.824;2023-03-01T20:16:07;26.08;;;13.13;;
63089;SDS011;49174;43.198;27.824;2023-03-01T20:18:33;21.70;;;13.45;;
63089;SDS011;49174;43.198;27.824;2023-03-01T20:21:00;23.95;;;15.30;;
63089;SDS011;49174;43.198;27.824;2023-03-01T20:23:26;25.73;;;14.20;;
63089;SDS011;49174;43.198;27.824;2023-03-01T20:25:59;29.70;;;15.75;;
63089;SDS011;49174;43.198;27.824;2023-03-01T20:28:26;52.60;;;26.60;;
63089;SDS011;49174;43.198;27.824;2023-03-01T20:30:52;78.47;;;33.53;;
63089;SDS011;49174;43.198;27.824;2023-03-01T20:33:17;89.45;;;36.50;;
63089;SDS011;49174;43.198;27.824;2023-03-01T20:35:43;167.07;;;61.72;;
63089;SDS011;49174;43.198;27.824;2023-03-01T20:38:08;148.68;;;55.75;;
63089;SDS011;49174;43.198;27.824;2023-03-01T20:40:34;69.35;;;30.30;;
63089;SDS011;49174;43.198;27.824;2023-03-01T20:43:00;57.45;;;26.08;;
63089;SDS011;49174;43.198;27.824;2023-03-01T20:45:26;94.15;;;33.95;;
63089;SDS011;49174;43.198;27.824;2023-03-01T20:47:51;45.42;;;22.55;;
63089;SDS011;49174;43.198;27.824;2023-03-01T20:50:18;120.03;;;35.22;;
63089;SDS011;49174;43.198;27.824;2023-03-01T20:52:44;221.48;;;61.97;;
63089;SDS011;49174;43.198;27.824;2023-03-01T20:55:10;206.88;;;70.75;;
63089;SDS011;49174;43.198;27.824;2023-03-01T20:57:36;98.15;;;40.65;;
63089;SDS011;49174;43.198;27.824;2023-03-01T21:00:02;93.50;;;42.65;;
63089;SDS011;49174;43.198;27.824;2023-03-01T21:02:30;69.35;;;36.97;;
63089;SDS011;49174;43.198;27.824;2023-03-01T21:04:55;43.90;;;22.65;;
63089;SDS011;49174;43.198;27.824;2023-03-01T21:07:21;34.88;;;19.17;;
63089;SDS011;49174;43.198;27.824;2023-03-01T21:09:46;27.88;;;15.85;;
63089;SDS011;49174;43.198;27.824;2023-03-01T21:12:12;39.25;;;18.65;;
63089;SDS011;49174;43.198;27.824;2023-03-01T21:14:38;47.10;;;20.08;;
63089;SDS011;49174;43.198;27.824;2023-03-01T21:17:07;225.38;;;66.03;;
63089;SDS011;49174;43.198;27.824;2023-03-01T21:19:38;271.17;;;67.50;;
63089;SDS011;49174;43.198;27.824;2023-03-01T21:22:05;380.45;;;79.47;;
63089;SDS011;49174;43.198;27.824;2023-03-01T21:24:31;481.85;;;100.78;;
63089;SDS011;49174;43.198;27.824;2023-03-01T21:26:57;276.05;;;56.05;;
63089;SDS011;49174;43.198;27.824;2023-03-01T21:29:22;168.88;;;39.35;;
63089;SDS011;49174;43.198;27.824;2023-03-01T21:31:48;60.55;;;20.48;;
63089;SDS011;49174;43.198;27.824;2023-03-01T21:34:14;33.17;;;14.35;;
63089;SDS011;49174;43.198;27.824;2023-03-01T21:36:40;26.45;;;12.55;;
63089;SDS011;49174;43.198;27.824;2023-03-01T21:39:06;25.98;;;14.05;;
63089;SDS011;49174;43.198;27.824;2023-03-01T21:41:33;22.55;;;12.55;;
63089;SDS011;49174;43.198;27.824;2023-03-01T21:44:00;17.33;;;10.60;;
63089;SDS011;49174;43.198;27.824;2023-03-01T21:46:28;17.40;;;11.40;;
63089;SDS011;49174;43.198;27.824;2023-03-01T21:48:55;18.23;;;10.90;;
63089;SDS011;49174;43.198;27.824;2023-03-01T21:51:22;19.67;;;10.75;;
63089;SDS011;49174;43.198;27.824;2023-03-01T21:53:50;16.42;;;10.93;;
63089;SDS011;49174;43.198;27.824;2023-03-01T21:56:16;18.73;;;11.63;;
63089;SDS011;49174;43.198;27.824;2023-03-01T21:58:44;18.25;;;10.73;;
63089;SDS011;49174;43.198;27.824;2023-03-01T22:01:11;17.73;;;9.52;;
63089;SDS011;49174;43.198;27.824;2023-03-01T22:03:41;16.40;;;10.07;;
63089;SDS011;49174;43.198;27.824;2023-03-01T22:06:12;14.50;;;9.98;;
63089;SDS011;49174;43.198;27.824;2023-03-01T22:08:54;16.48;;;10.30;;
63089;SDS011;49174;43.198;27.824;2023-03-01T22:11:21;18.35;;;11.27;;
63089;SDS011;49174;43.198;27.824;2023-03-01T22:13:48;17.25;;;10.93;;
63089;SDS011;49174;43.198;27.824;2023-03-01T22:16:17;17.02;;;11.55;;
63089;SDS011;49174;43.198;27.824;2023-03-01T22:18:48;17.92;;;10.82;;
63089;SDS011;49174;43.198;27.824;2023-03-01T22:21:14;16.77;;;11.50;;
63089;SDS011;49174;43.198;27.824;2023-03-01T22:23:40;16.80;;;10.38;;
63089;SDS011;49174;43.198;27.824;2023-03-01T22:26:06;17.67;;;10.88;;
63089;SDS011;49174;43.198;27.824;2023-03-01T22:28:33;19.05;;;11.90;;
63089;SDS011;49174;43.198;27.824;2023-03-01T22:31:05;16.30;;;10.77;;
63089;SDS011;49174;43.198;27.824;2023-03-01T22:33:31;17.02;;;11.82;;
63089;SDS011;49174;43.198;27.824;2023-03-01T22:35:57;17.92;;;11.95;;
63089;SDS011;49174;43.198;27.824;2023-03-01T22:38:22;17.98;;;12.20;;
63089;SDS011;49174;43.198;27.824;2023-03-01T22:41:21;20.65;;;12.27;;
63089;SDS011;49174;43.198;27.824;2023-03-01T22:43:39;19.48;;;11.95;;
63089;SDS011;49174;43.198;27.824;2023-03-01T22:46:12;19.10;;;11.57;;
63089;SDS011;49174;43.198;27.824;2023-03-01T22:48:40;18.17;;;11.88;;
63089;SDS011;49174;43.198;27.824;2023-03-01T22:51:06;17.38;;;11.20;;
63089;SDS011;49174;43.198;27.824;2023-03-01T22:53:33;20.98;;;12.80;;
63089;SDS011;49174;43.198;27.824;2023-03-01T22:55:58;19.70;;;12.20;;
63089;SDS011;49174;43.198;27.824;2023-03-01T22:58:34;20.40;;;13.20;;
63089;SDS011;49174;43.198;27.824;2023-03-01T23:01:00;18.33;;;12.00;;
63089;SDS011;49174;43.198;27.824;2023-03-01T23:03:25;19.77;;;12.10;;
63089;SDS011;49174;43.198;27.824;2023-03-01T23:05:51;19.92;;;12.90;;
63089;SDS011;49174;43.198;27.824;2023-03-01T23:08:16;19.98;;;11.20;;
63089;SDS011;49174;43.198;27.824;2023-03-01T23:10:42;16.58;;;10.88;;
63089;SDS011;49174;43.198;27.824;2023-03-01T23:13:07;18.02;;;11.70;;
63089;SDS011;49174;43.198;27.824;2023-03-01T23:15:34;19.60;;;11.45;;
63089;SDS011;49174;43.198;27.824;2023-03-01T23:17:59;19.35;;;11.63;;
63089;SDS011;49174;43.198;27.824;2023-03-01T23:20:25;14.88;;;10.57;;
63089;SDS011;49174;43.198;27.824;2023-03-01T23:22:50;16.40;;;11.10;;
63089;SDS011;49174;43.198;27.824;2023-03-01T23:25:16;17.48;;;11.07;;
63089;SDS011;49174;43.198;27.824;2023-03-01T23:27:41;16.80;;;11.15;;
63089;SDS011;49174;43.198;27.824;2023-03-01T23:30:07;17.08;;;11.35;;
63089;SDS011;49174;43.198;27.824;2023-03-01T23:32:34;18.90;;;10.85;;
63089;SDS011;49174;43.198;27.824;2023-03-01T23:35:05;17.67;;;11.25;;
63089;SDS011;49174;43.198;27.824;2023-03-01T23:37:47;18.50;;;11.38;;
63089;SDS011;49174;43.198;27.824;2023-03-01T23:40:12;18.77;;;11.35;;
63089;SDS011;49174;43.198;27.824;2023-03-01T23:42:38;21.15;;;11.18;;
63089;SDS011;49174;43.198;27.824;2023-03-01T23:45:05;16.70;;;11.20;;
63089;SDS011;49174;43.198;27.824;2023-03-01T23:47:31;20.30;;;11.63;;
63089;SDS011;49174;43.198;27.824;2023-03-01T23:49:57;18.70;;;11.38;;
63089;SDS011;49174;43.198;27.824;2023-03-01T23:52:23;17.58;;;11.23;;
63089;SDS011;49174;43.198;27.824;2023-03-01T23:54:48;19.25;;;11.05;;
63089;SDS011;49174;43.198;27.824;2023-03-01T23:57:15;18.83;;;10.82;;
63089;SDS011;49174;43.198;27.824;2023-03-01T23:59:41;18.00;;;10.82;;
